createdAt,value
2023-02-28T00:00:05.779Z,-6.32
2023-02-28T00:00:35.825Z,-6.32
2023-02-28T00:01:08.704Z,-6.32
2023-02-28T00:01:39.714Z,-6.32
2023-02-28T00:02:12.861Z,-6.32
2023-02-28T00:02:43.752Z,-6.32
2023-02-28T00:03:16.339Z,-6.32
2023-02-28T00:03:47.759Z,-6.32
2023-02-28T00:04:20.531Z,-6.21
2023-02-28T00:04:51.794Z,-6.21
2023-02-28T00:05:24.701Z,-6.21
2023-02-28T00:05:55.740Z,-6.21
2023-02-28T00:06:28.383Z,-6.21
2023-02-28T00:06:59.574Z,-6.21
2023-02-28T00:07:32.461Z,-6.21
2023-02-28T00:08:03.715Z,-6.21
2023-02-28T00:08:37.627Z,-6.21
2023-02-28T00:09:07.638Z,-6.21
2023-02-28T00:09:40.485Z,-6.21
2023-02-28T00:10:12.083Z,-6.21
2023-02-28T00:10:44.332Z,-6.21
2023-02-28T00:11:15.649Z,-6.21
2023-02-28T00:11:48.592Z,-6.21
2023-02-28T00:12:19.814Z,-6.21
2023-02-28T00:12:52.431Z,-6.21
2023-02-28T00:13:23.748Z,-6.21
2023-02-28T00:13:56.604Z,-6.21
2023-02-28T00:14:27.562Z,-6.21
2023-02-28T00:15:02.041Z,-6.11
2023-02-28T00:15:31.944Z,-6.11
2023-02-28T00:16:04.553Z,-6.21
2023-02-28T00:16:35.843Z,-6.21
2023-02-28T00:17:08.744Z,-6.21
2023-02-28T00:17:39.559Z,-6.21
2023-02-28T00:18:13.352Z,-6.21
2023-02-28T00:18:43.693Z,-6.21
2023-02-28T00:19:18.197Z,-6.11
2023-02-28T00:19:47.726Z,-6.11
2023-02-28T00:20:20.914Z,-6.21
2023-02-28T00:20:51.745Z,-6.21
2023-02-28T00:21:24.369Z,-6.11
2023-02-28T00:21:55.631Z,-6.11
2023-02-28T00:22:29.775Z,-6.11
2023-02-28T00:22:59.815Z,-6.11
2023-02-28T00:23:32.570Z,-6.11
2023-02-28T00:24:03.738Z,-6.11
2023-02-28T00:24:36.472Z,-6.11
2023-02-28T00:25:07.965Z,-6.11
2023-02-28T00:25:40.775Z,-6.26
2023-02-28T00:26:11.745Z,-6.26
2023-02-28T00:26:44.696Z,-6.26
2023-02-28T00:27:15.720Z,-6.26
2023-02-28T00:27:48.523Z,-6.11
2023-02-28T00:28:19.732Z,-6.11
2023-02-28T00:28:53.381Z,-6.11
2023-02-28T00:29:23.651Z,-6.11
2023-02-28T00:29:56.657Z,-6.11
2023-02-28T00:30:28.876Z,-6.11
2023-02-28T00:31:02.532Z,-6.11
2023-02-28T00:31:31.743Z,-6.11
2023-02-28T00:32:04.769Z,-6.11
2023-02-28T00:32:35.717Z,-6.11
2023-02-28T00:33:08.606Z,-6.11
2023-02-28T00:33:39.788Z,-6.11
2023-02-28T00:34:12.722Z,-6.11
2023-02-28T00:34:43.653Z,-6.11
2023-02-28T00:35:16.877Z,-6.11
2023-02-28T00:35:47.900Z,-6.11
2023-02-28T00:36:20.588Z,-6.11
2023-02-28T00:36:51.795Z,-6.11
2023-02-28T00:37:24.536Z,-6.11
2023-02-28T00:37:55.625Z,-6.11
2023-02-28T00:38:28.499Z,-6.11
2023-02-28T00:38:59.801Z,-6.11
2023-02-28T00:39:33.445Z,-6.26
2023-02-28T00:40:03.937Z,-6.26
2023-02-28T00:40:36.641Z,-6.26
2023-02-28T00:41:07.836Z,-6.26
2023-02-28T00:41:40.451Z,-6.26
2023-02-28T00:42:11.705Z,-6.26
2023-02-28T00:42:44.740Z,-6.26
2023-02-28T00:43:15.847Z,-6.26
2023-02-28T00:43:48.591Z,-6.26
2023-02-28T00:44:19.737Z,-6.26
2023-02-28T00:44:52.816Z,-6.26
2023-02-28T00:45:24.669Z,-6.26
2023-02-28T00:45:56.962Z,-6.11
2023-02-28T00:46:27.912Z,-6.11
2023-02-28T00:47:00.619Z,-6.11
2023-02-28T00:47:31.668Z,-6.11
2023-02-28T00:48:04.807Z,-6.11
2023-02-28T00:48:35.844Z,-6.11
2023-02-28T00:49:08.579Z,-6.11
2023-02-28T00:49:39.673Z,-6.11
2023-02-28T00:50:12.994Z,-6.11
2023-02-28T00:50:43.734Z,-6.11
2023-02-28T00:51:16.377Z,-6.11
2023-02-28T00:51:47.646Z,-6.11
2023-02-28T00:52:20.529Z,-6.11
2023-02-28T00:52:51.574Z,-6.11
2023-02-28T00:53:24.517Z,-6.11
2023-02-28T00:53:55.716Z,-6.11
2023-02-28T00:54:28.645Z,-6.11
2023-02-28T00:54:59.732Z,-6.11
2023-02-28T00:55:33.063Z,-6.11
2023-02-28T00:56:03.850Z,-6.11
2023-02-28T00:56:37.381Z,-6.11
2023-02-28T00:57:07.726Z,-6.11
2023-02-28T00:57:40.804Z,-6.11
2023-02-28T00:58:11.889Z,-6.11
2023-02-28T00:58:44.546Z,-6.11
2023-02-28T00:59:15.661Z,-6.11
2023-02-28T00:59:48.672Z,-6.11
2023-02-28T01:00:21.096Z,-6.11
2023-02-28T01:00:52.612Z,-6.11
2023-02-28T01:01:23.812Z,-6.11
2023-02-28T01:01:57.011Z,-6.11
2023-02-28T01:02:27.701Z,-6.11
2023-02-28T01:03:00.531Z,-6.11
2023-02-28T01:03:31.897Z,-6.11
2023-02-28T01:04:04.582Z,-6.11
2023-02-28T01:04:35.616Z,-6.11
2023-02-28T01:05:10.707Z,-6.11
2023-02-28T01:05:39.857Z,-6.11
2023-02-28T01:06:12.456Z,-6.11
2023-02-28T01:06:43.664Z,-6.11
2023-02-28T01:07:16.789Z,-5.99
2023-02-28T01:07:47.601Z,-5.99
2023-02-28T01:08:20.643Z,-6.11
2023-02-28T01:08:51.860Z,-6.11
2023-02-28T01:09:24.490Z,-5.99
2023-02-28T01:09:55.679Z,-5.99
2023-02-28T01:10:28.944Z,-5.99
2023-02-28T01:10:59.815Z,-5.99
2023-02-28T01:11:32.493Z,-5.99
2023-02-28T01:12:03.769Z,-5.99
2023-02-28T01:12:36.699Z,-6.11
2023-02-28T01:13:07.693Z,-6.11
2023-02-28T01:13:40.490Z,-5.99
2023-02-28T01:14:11.760Z,-5.99
2023-02-28T01:14:44.625Z,-5.99
2023-02-28T01:15:16.619Z,-5.99
2023-02-28T01:15:48.675Z,-5.99
2023-02-28T01:16:19.801Z,-5.99
2023-02-28T01:16:52.580Z,-5.99
2023-02-28T01:17:23.689Z,-5.99
2023-02-28T01:17:56.753Z,-5.99
2023-02-28T01:18:27.875Z,-5.99
2023-02-28T01:19:00.600Z,-5.99
2023-02-28T01:19:31.810Z,-5.99
2023-02-28T01:20:04.968Z,-5.99
2023-02-28T01:20:35.618Z,-5.99
2023-02-28T01:21:08.454Z,-5.99
2023-02-28T01:21:39.863Z,-5.99
2023-02-28T01:22:12.736Z,-5.99
2023-02-28T01:22:43.777Z,-5.99
2023-02-28T01:23:16.664Z,-5.99
2023-02-28T01:23:47.827Z,-5.99
2023-02-28T01:24:20.577Z,-5.88
2023-02-28T01:24:51.638Z,-5.88
2023-02-28T01:25:25.333Z,-5.88
2023-02-28T01:25:55.650Z,-5.88
2023-02-28T01:26:28.454Z,-5.88
2023-02-28T01:26:59.728Z,-5.88
2023-02-28T01:27:32.662Z,-6.04
2023-02-28T01:28:03.668Z,-6.04
2023-02-28T01:28:36.531Z,-6.04
2023-02-28T01:29:07.829Z,-6.04
2023-02-28T01:29:40.583Z,-6.04
2023-02-28T01:30:12.600Z,-6.04
2023-02-28T01:30:44.950Z,-6.04
2023-02-28T01:31:15.862Z,-6.04
2023-02-28T01:31:49.340Z,-6.04
2023-02-28T01:32:19.657Z,-6.04
2023-02-28T01:32:52.720Z,-6.04
2023-02-28T01:33:23.807Z,-6.04
2023-02-28T01:33:56.685Z,-6.04
2023-02-28T01:34:27.761Z,-6.04
2023-02-28T01:35:00.808Z,-6.04
2023-02-28T01:35:31.623Z,-6.04
2023-02-28T01:36:04.439Z,-6.04
2023-02-28T01:36:35.781Z,-6.04
2023-02-28T01:37:08.729Z,-6.04
2023-02-28T01:37:39.744Z,-6.04
2023-02-28T01:38:21.282Z,-5.88
2023-02-28T01:38:43.713Z,-5.88
2023-02-28T01:39:16.439Z,-6.04
2023-02-28T01:39:47.745Z,-6.04
2023-02-28T01:40:21.160Z,-6.04
2023-02-28T01:40:51.629Z,-6.04
2023-02-28T01:41:24.683Z,-6.04
2023-02-28T01:41:55.672Z,-6.04
2023-02-28T01:42:28.554Z,-6.04
2023-02-28T01:42:59.745Z,-6.04
2023-02-28T01:43:32.616Z,-6.04
2023-02-28T01:44:03.849Z,-6.04
2023-02-28T01:44:36.827Z,-6.04
2023-02-28T01:45:08.861Z,-6.04
2023-02-28T01:45:41.678Z,-6.04
2023-02-28T01:46:11.885Z,-6.04
2023-02-28T01:46:44.442Z,-5.88
2023-02-28T01:47:15.715Z,-5.88
2023-02-28T01:47:48.607Z,-5.88
2023-02-28T01:48:19.603Z,-5.88
2023-02-28T01:48:52.376Z,-5.99
2023-02-28T01:49:23.833Z,-5.99
2023-02-28T01:49:56.575Z,-6.04
2023-02-28T01:50:27.947Z,-6.04
2023-02-28T01:51:00.481Z,-5.99
2023-02-28T01:51:31.794Z,-5.99
2023-02-28T01:52:05.292Z,-6.04
2023-02-28T01:52:35.723Z,-6.04
2023-02-28T01:53:08.561Z,-6.04
2023-02-28T01:53:39.854Z,-6.04
2023-02-28T01:54:12.687Z,-5.99
2023-02-28T01:54:43.753Z,-5.99
2023-02-28T01:55:16.922Z,-6.04
2023-02-28T01:55:47.703Z,-6.04
2023-02-28T01:56:20.536Z,-6.04
2023-02-28T01:56:51.792Z,-6.04
2023-02-28T01:57:24.630Z,-6.04
2023-02-28T01:57:55.713Z,-6.04
2023-02-28T01:58:28.451Z,-6.04
2023-02-28T01:58:59.800Z,-6.04
2023-02-28T01:59:32.725Z,-6.04
2023-02-28T02:00:05.283Z,-6.04
2023-02-28T02:00:36.950Z,-6.04
2023-02-28T02:01:07.601Z,-6.04
2023-02-28T02:01:41.491Z,-6.04
2023-02-28T02:02:11.817Z,-6.04
2023-02-28T02:02:44.783Z,-6.04
2023-02-28T02:03:17.237Z,-6.04
2023-02-28T02:03:48.761Z,-5.88
2023-02-28T02:04:19.825Z,-5.88
2023-02-28T02:04:53.147Z,-6.15
2023-02-28T02:05:23.999Z,-6.15
2023-02-28T02:05:56.848Z,-5.99
2023-02-28T02:06:27.884Z,-5.99
2023-02-28T02:07:00.432Z,-5.99
2023-02-28T02:07:31.781Z,-5.99
2023-02-28T02:08:04.630Z,-5.99
2023-02-28T02:08:35.598Z,-5.99
2023-02-28T02:09:09.310Z,-5.99
2023-02-28T02:09:39.815Z,-5.99
2023-02-28T02:10:13.716Z,-5.99
2023-02-28T02:10:43.641Z,-5.99
2023-02-28T02:11:16.776Z,-5.99
2023-02-28T02:11:47.817Z,-5.99
2023-02-28T02:12:22.236Z,-5.99
2023-02-28T02:12:51.777Z,-5.99
2023-02-28T02:13:24.592Z,-5.99
2023-02-28T02:13:55.866Z,-5.99
2023-02-28T02:14:28.569Z,-5.99
2023-02-28T02:14:59.692Z,-5.99
2023-02-28T02:15:34.082Z,-5.99
2023-02-28T02:16:03.805Z,-5.99
2023-02-28T02:16:36.671Z,-5.99
2023-02-28T02:17:07.869Z,-5.99
2023-02-28T02:17:40.701Z,-5.99
2023-02-28T02:18:11.797Z,-5.99
2023-02-28T02:18:44.717Z,-5.99
2023-02-28T02:19:15.848Z,-5.99
2023-02-28T02:19:52.421Z,-5.99
2023-02-28T02:20:20.118Z,-5.99
2023-02-28T02:20:51.880Z,-5.99
2023-02-28T02:21:23.617Z,-5.99
2023-02-28T02:21:55.624Z,-5.99
2023-02-28T02:22:28.499Z,-5.99
2023-02-28T02:22:59.884Z,-5.99
2023-02-28T02:23:32.565Z,-5.99
2023-02-28T02:24:03.719Z,-5.99
2023-02-28T02:24:36.694Z,-5.99
2023-02-28T02:25:08.020Z,-5.99
2023-02-28T02:25:40.434Z,-5.99
2023-02-28T02:26:11.764Z,-5.99
2023-02-28T02:26:44.696Z,-5.99
2023-02-28T02:27:15.598Z,-5.99
2023-02-28T02:27:48.587Z,-5.99
2023-02-28T02:28:19.708Z,-6.11
2023-02-28T02:28:52.619Z,-6.11
2023-02-28T02:29:23.702Z,-6.11
2023-02-28T02:29:56.666Z,-6.11
2023-02-28T02:30:29.053Z,-6.11
2023-02-28T02:31:00.581Z,-6.11
2023-02-28T02:31:32.100Z,-5.99
2023-02-28T02:32:04.800Z,-5.99
2023-02-28T02:32:35.842Z,-6.11
2023-02-28T02:33:08.536Z,-6.11
2023-02-28T02:33:39.729Z,-6.11
2023-02-28T02:34:12.502Z,-6.11
2023-02-28T02:34:43.560Z,-6.11
2023-02-28T02:35:16.876Z,-6.11
2023-02-28T02:35:47.771Z,-6.11
2023-02-28T02:36:20.838Z,-6.11
2023-02-28T02:36:51.632Z,-6.11
2023-02-28T02:37:07.858Z,-6.11
2023-02-28T02:37:39.649Z,-6.11
2023-02-28T02:38:11.709Z,-6.11
2023-02-28T02:38:43.733Z,-6.11
2023-02-28T02:39:15.685Z,-6.11
2023-02-28T02:39:48.825Z,-6.11
2023-02-28T02:40:20.176Z,-6.11
2023-02-28T02:40:52.390Z,-6.11
2023-02-28T02:41:23.729Z,-6.11
2023-02-28T02:41:56.743Z,-6.11
2023-02-28T02:42:27.852Z,-6.11
2023-02-28T02:43:00.543Z,-6.11
2023-02-28T02:43:31.790Z,-6.11
2023-02-28T02:44:04.650Z,-6.11
2023-02-28T02:44:35.733Z,-6.11
2023-02-28T02:45:09.782Z,-6.11
2023-02-28T02:45:39.924Z,-6.11
2023-02-28T02:46:12.837Z,-6.11
2023-02-28T02:46:43.791Z,-6.11
2023-02-28T02:47:16.576Z,-6.11
2023-02-28T02:47:47.742Z,-6.11
2023-02-28T02:48:20.636Z,-6.11
2023-02-28T02:48:51.622Z,-6.11
2023-02-28T02:49:24.607Z,-6.11
2023-02-28T02:49:55.773Z,-6.11
2023-02-28T02:50:29.921Z,-6.11
2023-02-28T02:50:59.799Z,-6.11
2023-02-28T02:51:32.585Z,-6.11
2023-02-28T02:52:03.722Z,-6.11
2023-02-28T02:52:36.518Z,-6.11
2023-02-28T02:53:07.728Z,-6.21
2023-02-28T02:53:43.350Z,-6.21
2023-02-28T02:54:11.744Z,-6.11
2023-02-28T02:54:44.552Z,-6.11
2023-02-28T02:55:15.963Z,-6.11
2023-02-28T02:55:52.099Z,-6.11
2023-02-28T02:56:19.749Z,-6.11
2023-02-28T02:56:53.041Z,-6.11
2023-02-28T02:57:23.862Z,-6.11
2023-02-28T02:57:56.328Z,-6.11
2023-02-28T02:58:27.720Z,-6.21
2023-02-28T02:59:00.584Z,-6.21
2023-02-28T02:59:31.673Z,-6.21
2023-02-28T03:00:05.962Z,-6.21
2023-02-28T03:00:36.029Z,-6.21
2023-02-28T03:01:08.715Z,-6.21
2023-02-28T03:01:39.683Z,-6.21
2023-02-28T03:02:15.590Z,-6.21
2023-02-28T03:02:43.767Z,-6.21
2023-02-28T03:03:16.586Z,-6.21
2023-02-28T03:03:47.778Z,-6.21
2023-02-28T03:04:20.509Z,-6.21
2023-02-28T03:04:51.806Z,-6.21
2023-02-28T03:05:24.816Z,-6.21
2023-02-28T03:05:55.844Z,-6.07
2023-02-28T03:06:28.644Z,-6.07
2023-02-28T03:06:59.649Z,-6.07
2023-02-28T03:07:32.564Z,-6.07
2023-02-28T03:08:03.768Z,-6.07
2023-02-28T03:08:36.547Z,-6.07
2023-02-28T03:09:07.696Z,-5.96
2023-02-28T03:09:40.519Z,-5.96
2023-02-28T03:10:12.093Z,-5.96
2023-02-28T03:10:45.375Z,-5.96
2023-02-28T03:11:15.727Z,-5.96
2023-02-28T03:11:48.527Z,-5.96
2023-02-28T03:12:19.878Z,-6.07
2023-02-28T03:12:52.580Z,-6.07
2023-02-28T03:13:23.665Z,-5.96
2023-02-28T03:13:56.548Z,-5.96
2023-02-28T03:14:27.744Z,-5.96
2023-02-28T03:15:01.765Z,-5.96
2023-02-28T03:15:31.893Z,-6.11
2023-02-28T03:16:04.758Z,-6.11
2023-02-28T03:16:35.716Z,-5.96
2023-02-28T03:17:08.508Z,-5.96
2023-02-28T03:17:39.757Z,-5.96
2023-02-28T03:18:12.365Z,-5.96
2023-02-28T03:18:43.723Z,-5.96
2023-02-28T03:19:16.473Z,-5.96
2023-02-28T03:19:47.911Z,-5.96
2023-02-28T03:20:20.854Z,-5.96
2023-02-28T03:20:51.704Z,-5.84
2023-02-28T03:21:24.620Z,-5.84
2023-02-28T03:21:55.661Z,-5.84
2023-02-28T03:22:28.555Z,-5.84
2023-02-28T03:22:59.753Z,-5.84
2023-02-28T03:23:32.627Z,-5.84
2023-02-28T03:24:03.612Z,-5.99
2023-02-28T03:24:36.674Z,-5.99
2023-02-28T03:25:08.053Z,-5.99
2023-02-28T03:25:40.475Z,-5.99
2023-02-28T03:26:11.758Z,-5.99
2023-02-28T03:26:44.658Z,-5.99
2023-02-28T03:27:15.873Z,-5.88
2023-02-28T03:27:48.404Z,-5.88
2023-02-28T03:28:19.713Z,-5.88
2023-02-28T03:28:52.484Z,-5.88
2023-02-28T03:29:23.623Z,-5.88
2023-02-28T03:29:56.402Z,-5.88
2023-02-28T03:30:29.049Z,-5.88
2023-02-28T03:31:00.501Z,-5.88
2023-02-28T03:31:32.227Z,-5.88
2023-02-28T03:32:06.626Z,-5.88
2023-02-28T03:32:35.929Z,-5.88
2023-02-28T03:33:08.501Z,-5.88
2023-02-28T03:33:39.807Z,-5.88
2023-02-28T03:34:12.583Z,-5.88
2023-02-28T03:34:43.612Z,-5.88
2023-02-28T03:35:16.846Z,-5.88
2023-02-28T03:35:47.955Z,-5.88
2023-02-28T03:36:20.590Z,-5.88
2023-02-28T03:36:51.760Z,-5.83
2023-02-28T03:37:24.791Z,-5.83
2023-02-28T03:37:55.851Z,-5.83
2023-02-28T03:38:28.435Z,-5.83
2023-02-28T03:38:59.747Z,-5.83
2023-02-28T03:39:34.419Z,-5.83
2023-02-28T03:40:04.361Z,-5.83
2023-02-28T03:40:36.659Z,-5.83
2023-02-28T03:41:07.729Z,-5.83
2023-02-28T03:41:41.510Z,-5.83
2023-02-28T03:42:11.609Z,-5.99
2023-02-28T03:42:45.722Z,-5.99
2023-02-28T03:43:15.844Z,-5.99
2023-02-28T03:43:49.677Z,-5.99
2023-02-28T03:44:19.782Z,-5.99
2023-02-28T03:44:52.675Z,-5.99
2023-02-28T03:45:24.949Z,-5.99
2023-02-28T03:45:56.841Z,-5.99
2023-02-28T03:46:27.879Z,-5.99
2023-02-28T03:47:00.881Z,-5.99
2023-02-28T03:47:31.860Z,-5.99
2023-02-28T03:48:04.741Z,-5.99
2023-02-28T03:48:35.746Z,-5.99
2023-02-28T03:49:08.736Z,-5.99
2023-02-28T03:49:39.695Z,-5.99
2023-02-28T03:50:12.938Z,-5.99
2023-02-28T03:50:43.896Z,-5.99
2023-02-28T03:51:16.626Z,-5.99
2023-02-28T03:51:47.717Z,-5.99
2023-02-28T03:52:20.859Z,-5.99
2023-02-28T03:52:51.842Z,-5.99
2023-02-28T03:53:24.274Z,-5.99
2023-02-28T03:53:55.798Z,-5.99
2023-02-28T03:54:28.856Z,-5.99
2023-02-28T03:54:59.843Z,-5.88
2023-02-28T03:55:32.833Z,-5.88
2023-02-28T03:56:03.802Z,-5.88
2023-02-28T03:56:36.724Z,-5.88
2023-02-28T03:57:07.867Z,-5.88
2023-02-28T03:57:40.515Z,-5.88
2023-02-28T03:58:11.921Z,-5.88
2023-02-28T03:58:44.608Z,-5.88
2023-02-28T03:59:15.647Z,-5.88
2023-02-28T03:59:48.595Z,-5.88
2023-02-28T04:00:22.393Z,-5.88
2023-02-28T04:00:52.639Z,-5.88
2023-02-28T04:01:23.819Z,-5.78
2023-02-28T04:01:56.607Z,-5.78
2023-02-28T04:02:27.760Z,-5.78
2023-02-28T04:03:01.382Z,-5.78
2023-02-28T04:03:31.846Z,-5.78
2023-02-28T04:04:04.935Z,-5.78
2023-02-28T04:04:35.871Z,-5.78
2023-02-28T04:05:09.753Z,-5.78
2023-02-28T04:05:39.802Z,-5.78
2023-02-28T04:06:12.518Z,-5.78
2023-02-28T04:06:43.729Z,-5.78
2023-02-28T04:07:16.822Z,-5.78
2023-02-28T04:07:47.912Z,-5.78
2023-02-28T04:08:20.719Z,-5.78
2023-02-28T04:08:51.738Z,-5.78
2023-02-28T04:09:24.509Z,-5.78
2023-02-28T04:09:55.676Z,-5.78
2023-02-28T04:10:28.877Z,-5.78
2023-02-28T04:10:59.802Z,-5.78
2023-02-28T04:11:32.470Z,-5.78
2023-02-28T04:12:03.729Z,-5.78
2023-02-28T04:12:38.432Z,-5.78
2023-02-28T04:13:07.848Z,-5.78
2023-02-28T04:13:40.545Z,-5.78
2023-02-28T04:14:11.684Z,-5.78
2023-02-28T04:14:44.641Z,-5.78
2023-02-28T04:15:16.675Z,-5.78
2023-02-28T04:15:48.757Z,-5.78
2023-02-28T04:16:33.823Z,-5.93
2023-02-28T04:16:52.581Z,-5.93
2023-02-28T04:17:23.738Z,-5.93
2023-02-28T04:17:57.633Z,-5.93
2023-02-28T04:18:27.822Z,-5.93
2023-02-28T04:19:01.071Z,-5.93
2023-02-28T04:19:31.875Z,-5.93
2023-02-28T04:20:04.947Z,-5.93
2023-02-28T04:20:35.961Z,-5.93
2023-02-28T04:21:08.607Z,-5.93
2023-02-28T04:21:39.982Z,-5.82
2023-02-28T04:22:13.083Z,-5.82
2023-02-28T04:22:43.756Z,-5.93
2023-02-28T04:23:16.482Z,-5.93
2023-02-28T04:23:47.765Z,-5.78
2023-02-28T04:24:20.704Z,-5.78
2023-02-28T04:24:51.690Z,-5.78
2023-02-28T04:25:08.520Z,-5.78
2023-02-28T04:25:39.732Z,-5.78
2023-02-28T04:26:11.775Z,-5.78
2023-02-28T04:26:43.877Z,-5.78
2023-02-28T04:27:15.923Z,-5.78
2023-02-28T04:27:47.709Z,-5.78
2023-02-28T04:28:19.840Z,-5.78
2023-02-28T04:28:51.879Z,-5.78
2023-02-28T04:29:23.697Z,-5.78
2023-02-28T04:29:56.563Z,-5.78
2023-02-28T04:30:29.025Z,-5.78
2023-02-28T04:31:01.806Z,-5.78
2023-02-28T04:31:31.960Z,-5.78
2023-02-28T04:32:04.868Z,-5.78
2023-02-28T04:32:35.844Z,-5.78
2023-02-28T04:33:08.654Z,-5.78
2023-02-28T04:33:39.756Z,-5.78
2023-02-28T04:34:12.668Z,-5.88
2023-02-28T04:34:43.878Z,-5.88
2023-02-28T04:35:17.061Z,-5.78
2023-02-28T04:35:47.992Z,-5.78
2023-02-28T04:36:20.792Z,-5.88
2023-02-28T04:37:06.132Z,-5.88
2023-02-28T04:37:24.784Z,-5.88
2023-02-28T04:37:55.920Z,-5.88
2023-02-28T04:38:28.651Z,-5.88
2023-02-28T04:38:59.745Z,-5.88
2023-02-28T04:39:32.653Z,-5.88
2023-02-28T04:40:04.190Z,-5.88
2023-02-28T04:40:36.748Z,-5.88
2023-02-28T04:41:07.812Z,-5.88
2023-02-28T04:41:41.396Z,-5.99
2023-02-28T04:42:11.686Z,-5.99
2023-02-28T04:42:44.687Z,-5.88
2023-02-28T04:43:15.862Z,-5.88
2023-02-28T04:43:48.703Z,-5.99
2023-02-28T04:44:19.696Z,-5.99
2023-02-28T04:44:52.712Z,-5.99
2023-02-28T04:45:24.995Z,-5.99
2023-02-28T04:45:56.742Z,-5.99
2023-02-28T04:46:27.750Z,-5.99
2023-02-28T04:47:01.744Z,-5.99
2023-02-28T04:47:31.910Z,-5.99
2023-02-28T04:48:04.758Z,-5.99
2023-02-28T04:48:35.754Z,-5.99
2023-02-28T04:49:08.652Z,-6.04
2023-02-28T04:49:39.836Z,-6.04
2023-02-28T04:50:13.035Z,-5.99
2023-02-28T04:50:43.847Z,-5.99
2023-02-28T04:51:16.670Z,-6.04
2023-02-28T04:51:47.708Z,-6.04
2023-02-28T04:52:20.509Z,-5.88
2023-02-28T04:52:51.832Z,-5.88
2023-02-28T04:53:24.758Z,-5.88
2023-02-28T04:53:55.719Z,-5.88
2023-02-28T04:54:28.599Z,-5.88
2023-02-28T04:54:59.847Z,-5.88
2023-02-28T04:55:32.894Z,-5.88
2023-02-28T04:56:03.719Z,-5.88
2023-02-28T04:56:36.555Z,-5.88
2023-02-28T04:57:07.632Z,-5.88
2023-02-28T04:57:41.494Z,-6.04
2023-02-28T04:58:11.796Z,-6.04
2023-02-28T04:58:44.831Z,-6.04
2023-02-28T04:59:15.736Z,-6.04
2023-02-28T04:59:48.574Z,-5.99
2023-02-28T05:00:21.285Z,-5.99
2023-02-28T05:00:53.774Z,-5.99
2023-02-28T05:01:23.715Z,-5.99
2023-02-28T05:01:56.692Z,-5.99
2023-02-28T05:02:27.849Z,-5.99
2023-02-28T05:03:01.659Z,-5.99
2023-02-28T05:03:31.791Z,-5.99
2023-02-28T05:04:05.437Z,-5.99
2023-02-28T05:04:35.738Z,-5.99
2023-02-28T05:05:08.939Z,-5.99
2023-02-28T05:05:39.941Z,-5.99
2023-02-28T05:06:12.618Z,-5.99
2023-02-28T05:06:43.886Z,-5.99
2023-02-28T05:07:16.695Z,-5.99
2023-02-28T05:07:47.607Z,-5.99
2023-02-28T05:08:21.408Z,-5.99
2023-02-28T05:08:51.735Z,-5.99
2023-02-28T05:09:25.726Z,-5.99
2023-02-28T05:09:55.715Z,-5.99
2023-02-28T05:10:28.939Z,-5.99
2023-02-28T05:10:59.838Z,-5.99
2023-02-28T05:11:32.897Z,-6.11
2023-02-28T05:12:03.768Z,-6.11
2023-02-28T05:12:36.804Z,-5.99
2023-02-28T05:13:07.826Z,-5.99
2023-02-28T05:13:40.523Z,-5.99
2023-02-28T05:14:11.792Z,-5.99
2023-02-28T05:14:44.763Z,-6.11
2023-02-28T05:15:16.701Z,-6.11
2023-02-28T05:15:48.879Z,-5.84
2023-02-28T05:16:19.973Z,-5.84
2023-02-28T05:16:52.722Z,-5.84
2023-02-28T05:17:23.702Z,-5.84
2023-02-28T05:17:57.747Z,-5.84
2023-02-28T05:18:27.842Z,-5.84
2023-02-28T05:19:00.757Z,-5.84
2023-02-28T05:19:31.761Z,-5.84
2023-02-28T05:20:15.115Z,-5.84
2023-02-28T05:20:35.895Z,-5.84
2023-02-28T05:21:11.314Z,-5.84
2023-02-28T05:21:39.804Z,-5.84
2023-02-28T05:22:15.705Z,-5.84
2023-02-28T05:22:43.698Z,-5.84
2023-02-28T05:23:16.415Z,-5.84
2023-02-28T05:23:48.253Z,-5.84
2023-02-28T05:24:21.644Z,-5.84
2023-02-28T05:24:51.731Z,-5.84
2023-02-28T05:25:08.276Z,-5.84
2023-02-28T05:25:39.741Z,-5.84
2023-02-28T05:26:11.799Z,-5.84
2023-02-28T05:26:43.973Z,-5.84
2023-02-28T05:27:15.676Z,-5.84
2023-02-28T05:27:48.649Z,-5.84
2023-02-28T05:28:19.800Z,-5.84
2023-02-28T05:28:52.762Z,-5.84
2023-02-28T05:29:23.744Z,-5.84
2023-02-28T05:29:56.699Z,-5.84
2023-02-28T05:30:28.992Z,-5.84
2023-02-28T05:31:01.429Z,-5.84
2023-02-28T05:31:32.367Z,-5.84
2023-02-28T05:32:04.988Z,-5.84
2023-02-28T05:32:35.913Z,-5.84
2023-02-28T05:33:09.029Z,-5.84
2023-02-28T05:33:39.769Z,-5.84
2023-02-28T05:34:12.605Z,-5.84
2023-02-28T05:34:43.928Z,-5.84
2023-02-28T05:35:16.753Z,-5.84
2023-02-28T05:35:47.882Z,-5.84
2023-02-28T05:36:20.731Z,-5.84
2023-02-28T05:36:51.724Z,-5.84
2023-02-28T05:37:24.666Z,-5.84
2023-02-28T05:37:55.914Z,-5.84
2023-02-28T05:38:43.975Z,-5.84
2023-02-28T05:39:15.943Z,-5.84
2023-02-28T05:39:47.725Z,-5.84
2023-02-28T05:40:21.077Z,-5.84
2023-02-28T05:40:51.820Z,-5.84
2023-02-28T05:41:24.626Z,-5.84
2023-02-28T05:41:55.790Z,-5.84
2023-02-28T05:42:28.846Z,-5.84
2023-02-28T05:42:59.820Z,-5.84
2023-02-28T05:43:32.568Z,-5.84
2023-02-28T05:44:03.857Z,-5.84
2023-02-28T05:44:36.611Z,-5.84
2023-02-28T05:45:08.825Z,-5.84
2023-02-28T05:45:40.877Z,-5.73
2023-02-28T05:46:11.958Z,-5.73
2023-02-28T05:46:44.928Z,-5.84
2023-02-28T05:47:15.673Z,-5.84
2023-02-28T05:47:48.807Z,-5.84
2023-02-28T05:48:19.858Z,-5.84
2023-02-28T05:48:52.436Z,-5.73
2023-02-28T05:49:23.815Z,-5.73
2023-02-28T05:49:56.668Z,-5.73
2023-02-28T05:50:27.832Z,-5.73
2023-02-28T05:51:00.706Z,-5.68
2023-02-28T05:51:32.162Z,-5.68
2023-02-28T05:52:04.695Z,-5.68
2023-02-28T05:52:35.742Z,-5.68
2023-02-28T05:53:08.582Z,-5.83
2023-02-28T05:53:39.815Z,-5.83
2023-02-28T05:54:14.077Z,-5.83
2023-02-28T05:54:43.733Z,-5.83
2023-02-28T05:55:22.498Z,-5.83
2023-02-28T05:55:47.877Z,-5.83
2023-02-28T05:56:19.853Z,-5.83
2023-02-28T05:56:52.682Z,-5.83
2023-02-28T05:57:24.808Z,-5.83
2023-02-28T05:57:56.931Z,-5.83
2023-02-28T05:58:27.727Z,-5.72
2023-02-28T05:59:00.865Z,-5.72
2023-02-28T05:59:31.982Z,-5.72
2023-02-28T06:00:06.393Z,-5.72
2023-02-28T06:00:36.123Z,-5.72
2023-02-28T06:01:09.941Z,-5.72
2023-02-28T06:01:40.179Z,-5.72
2023-02-28T06:02:16.465Z,-5.72
2023-02-28T06:02:43.997Z,-5.72
2023-02-28T06:03:16.110Z,-5.72
2023-02-28T06:03:47.973Z,-5.72
2023-02-28T06:04:31.042Z,-5.72
2023-02-28T06:04:52.894Z,-5.72
2023-02-28T06:05:24.420Z,-5.72
2023-02-28T06:06:12.102Z,-5.72
2023-02-28T06:06:43.894Z,-5.72
2023-02-28T06:07:15.927Z,-5.72
2023-02-28T06:07:48.091Z,-5.72
2023-02-28T06:08:19.849Z,-5.72
2023-02-28T06:08:52.946Z,-5.72
2023-02-28T06:09:23.973Z,-5.72
2023-02-28T06:09:57.906Z,-5.72
2023-02-28T06:10:28.398Z,-5.72
2023-02-28T06:11:00.858Z,-5.72
2023-02-28T06:11:32.235Z,-5.72
2023-02-28T06:12:04.891Z,-5.72
2023-02-28T06:12:35.975Z,-5.62
2023-02-28T06:13:08.969Z,-5.62
2023-02-28T06:13:40.169Z,-5.72
2023-02-28T06:14:12.780Z,-5.72
2023-02-28T06:14:44.160Z,-5.62
2023-02-28T06:15:18.136Z,-5.62
2023-02-28T06:15:48.112Z,-5.78
2023-02-28T06:16:21.080Z,-5.78
2023-02-28T06:16:52.094Z,-5.78
2023-02-28T06:17:24.937Z,-5.78
2023-02-28T06:17:55.937Z,-5.62
2023-02-28T06:18:29.018Z,-5.62
2023-02-28T06:19:00.096Z,-5.78
2023-02-28T06:19:32.838Z,-5.78
2023-02-28T06:20:04.395Z,-5.88
2023-02-28T06:20:36.938Z,-5.88
2023-02-28T06:21:08.148Z,-5.78
2023-02-28T06:21:40.670Z,-5.78
2023-02-28T06:22:12.112Z,-5.78
2023-02-28T06:22:44.866Z,-5.78
2023-02-28T06:23:16.022Z,-5.78
2023-02-28T06:23:48.914Z,-5.78
2023-02-28T06:24:20.072Z,-5.62
2023-02-28T06:24:52.918Z,-5.62
2023-02-28T06:25:24.276Z,-5.62
2023-02-28T06:25:56.981Z,-5.62
2023-02-28T06:26:28.286Z,-5.62
2023-02-28T06:27:00.895Z,-5.62
2023-02-28T06:27:32.092Z,-5.62
2023-02-28T06:28:05.086Z,-5.62
2023-02-28T06:28:36.200Z,-5.62
2023-02-28T06:29:08.698Z,-5.62
2023-02-28T06:29:40.095Z,-5.62
2023-02-28T06:30:13.825Z,-5.62
2023-02-28T06:30:46.369Z,-5.62
2023-02-28T06:31:16.896Z,-5.62
2023-02-28T06:31:48.189Z,-5.62
2023-02-28T06:32:21.008Z,-5.62
2023-02-28T06:32:51.972Z,-5.66
2023-02-28T06:33:24.774Z,-5.66
2023-02-28T06:33:55.988Z,-5.66
2023-02-28T06:34:28.730Z,-5.66
2023-02-28T06:34:59.876Z,-5.66
2023-02-28T06:35:33.112Z,-5.66
2023-02-28T06:36:04.033Z,-5.66
2023-02-28T06:36:36.895Z,-5.66
2023-02-28T06:37:08.123Z,-5.66
2023-02-28T06:37:41.975Z,-5.66
2023-02-28T06:38:11.937Z,-5.55
2023-02-28T06:38:44.960Z,-5.55
2023-02-28T06:39:16.083Z,-5.55
2023-02-28T06:39:49.021Z,-5.55
2023-02-28T06:40:20.334Z,-5.55
2023-02-28T06:40:52.885Z,-5.55
2023-02-28T06:41:24.007Z,-5.55
2023-02-28T06:41:57.194Z,-5.55
2023-02-28T06:42:28.028Z,-5.55
2023-02-28T06:43:00.854Z,-5.55
2023-02-28T06:43:32.012Z,-5.50
2023-02-28T06:44:04.754Z,-5.50
2023-02-28T06:44:36.362Z,-5.50
2023-02-28T06:45:10.054Z,-5.50
2023-02-28T06:45:40.169Z,-5.50
2023-02-28T06:46:13.019Z,-5.50
2023-02-28T06:46:44.199Z,-5.39
2023-02-28T06:47:16.889Z,-5.39
2023-02-28T06:47:48.045Z,-5.39
2023-02-28T06:48:20.577Z,-5.39
2023-02-28T06:48:51.905Z,-5.39
2023-02-28T06:49:08.110Z,-5.39
2023-02-28T06:49:40.179Z,-5.39
2023-02-28T06:50:12.323Z,-5.39
2023-02-28T06:50:44.995Z,-5.39
2023-02-28T06:51:16.203Z,-5.39